createdAt,value
2023-03-29T00:02:33.674Z,0.20
2023-03-29T00:07:35.208Z,0.17
2023-03-29T00:12:37.616Z,0.35
2023-03-29T00:17:39.009Z,0.20
2023-03-29T00:22:41.888Z,0.20
2023-03-29T00:27:43.269Z,0.20
2023-03-29T00:32:44.859Z,0.30
2023-03-29T00:37:50.656Z,0.20
2023-03-29T00:42:52.051Z,0.20
2023-03-29T00:47:56.858Z,0.30
2023-03-29T00:53:02.405Z,0.20
2023-03-29T00:58:04.919Z,0.20
2023-03-29T01:03:13.938Z,0.32
2023-03-29T01:08:27.435Z,0.20
2023-03-29T01:13:39.203Z,0.15
2023-03-29T01:18:41.793Z,0.10
2023-03-29T01:23:58.160Z,0.15
2023-03-29T01:29:18.520Z,0.20
2023-03-29T01:34:25.604Z,0.22
2023-03-29T01:39:27.007Z,0.30
2023-03-29T01:44:40.713Z,0.13
2023-03-29T01:49:45.238Z,0.10
2023-03-29T01:54:56.570Z,0.10
2023-03-29T01:59:58.232Z,0.20
2023-03-29T02:04:59.990Z,0.25
2023-03-29T02:10:01.979Z,0.10
2023-03-29T02:15:06.896Z,0.30
2023-03-29T02:20:20.429Z,0.28
2023-03-29T02:25:22.469Z,0.20
2023-03-29T02:30:23.875Z,0.20
2023-03-29T02:35:34.362Z,0.20
2023-03-29T02:40:37.443Z,0.20
2023-03-29T02:45:38.849Z,0.20
2023-03-29T02:50:40.977Z,0.20
2023-03-29T02:55:42.449Z,0.30
2023-03-29T03:00:45.447Z,0.17
2023-03-29T03:05:46.821Z,0.20
2023-03-29T03:10:48.195Z,0.10
2023-03-29T03:15:49.690Z,0.20
2023-03-29T03:20:57.937Z,0.20
2023-03-29T03:25:59.370Z,0.10
2023-03-29T03:31:00.830Z,0.20
2023-03-29T03:36:05.944Z,0.10
2023-03-29T03:41:07.332Z,0.30
2023-03-29T03:46:09.179Z,0.30
2023-03-29T03:51:10.675Z,0.20
2023-03-29T03:56:13.245Z,0.30
2023-03-29T04:01:14.636Z,0.20
2023-03-29T04:06:16.014Z,0.20
2023-03-29T04:11:17.391Z,0.30
2023-03-29T04:16:18.847Z,0.40
2023-03-29T04:21:21.322Z,0.20
2023-03-29T04:26:22.849Z,0.40
2023-03-29T04:31:24.303Z,0.35
2023-03-29T04:36:25.891Z,0.40
2023-03-29T04:41:28.509Z,0.22
2023-03-29T04:46:30.179Z,0.40
2023-03-29T04:51:31.752Z,0.20
2023-03-29T04:56:33.166Z,0.20
2023-03-29T05:01:34.991Z,0.40
2023-03-29T05:06:36.772Z,0.30
2023-03-29T05:11:38.246Z,0.32
2023-03-29T05:16:40.799Z,0.25
2023-03-29T05:21:43.735Z,0.30
2023-03-29T05:26:51.750Z,0.30
2023-03-29T05:31:54.018Z,0.30
2023-03-29T05:36:56.760Z,0.30
2023-03-29T05:41:58.122Z,0.30
2023-03-29T05:46:59.536Z,0.30
2023-03-29T05:52:00.923Z,0.30
2023-03-29T05:57:02.337Z,0.30
2023-03-29T06:02:04.964Z,0.40
2023-03-29T06:07:06.963Z,0.38
2023-03-29T06:12:08.442Z,0.40
2023-03-29T06:17:09.849Z,0.30
2023-03-29T06:22:13.082Z,0.50
2023-03-29T06:27:15.753Z,0.20
2023-03-29T06:32:17.546Z,0.20
2023-03-29T06:37:18.962Z,0.32
2023-03-29T06:42:21.797Z,0.40
2023-03-29T06:47:29.020Z,0.40
2023-03-29T06:52:30.420Z,0.20
2023-03-29T06:57:31.932Z,0.20
2023-03-29T07:02:34.377Z,0.30
2023-03-29T07:07:53.464Z,0.20
2023-03-29T07:12:54.934Z,0.32
2023-03-29T07:17:57.302Z,0.30
2023-03-29T07:22:58.743Z,0.32
2023-03-29T07:28:00.166Z,0.50
2023-03-29T07:33:04.475Z,0.35
2023-03-29T07:38:08.082Z,0.35
2023-03-29T07:43:10.901Z,0.43
2023-03-29T07:48:12.956Z,0.38
2023-03-29T07:53:14.352Z,0.30
2023-03-29T07:58:15.882Z,0.40
2023-03-29T08:03:17.629Z,0.40
2023-03-29T08:08:19.102Z,0.40
2023-03-29T08:13:20.767Z,0.35
2023-03-29T08:18:22.158Z,0.30
2023-03-29T08:23:23.611Z,0.40
2023-03-29T08:28:24.992Z,0.40
2023-03-29T08:33:26.434Z,0.30
2023-03-29T08:38:28.721Z,0.40
2023-03-29T08:43:57.865Z,0.30
2023-03-29T08:49:01.877Z,0.40
2023-03-29T08:54:10.485Z,0.40
2023-03-29T08:59:19.494Z,0.47
2023-03-29T09:04:25.211Z,0.30
2023-03-29T09:09:31.535Z,0.35
2023-03-29T09:15:01.436Z,0.22
2023-03-29T09:20:33.220Z,0.30
2023-03-29T09:25:53.406Z,0.30
2023-03-29T09:31:00.145Z,0.30
2023-03-29T09:36:07.815Z,0.32
2023-03-29T09:41:41.423Z,0.20
2023-03-29T09:46:48.620Z,0.30
2023-03-29T09:51:50.138Z,0.20
2023-03-29T09:56:52.553Z,0.30
2023-03-29T10:01:54.078Z,0.40
2023-03-29T10:06:55.718Z,0.25
2023-03-29T10:11:58.274Z,0.30
2023-03-29T10:16:59.690Z,0.32
2023-03-29T10:22:04.329Z,0.20
2023-03-29T10:27:07.735Z,0.30
2023-03-29T10:32:16.611Z,0.30
2023-03-29T10:37:19.134Z,0.22
2023-03-29T10:42:20.669Z,0.30
2023-03-29T10:47:22.126Z,0.10
2023-03-29T10:52:23.546Z,0.28
2023-03-29T10:57:37.082Z,0.28
2023-03-29T11:03:07.662Z,0.25
2023-03-29T11:08:21.395Z,0.20
2023-03-29T11:13:38.775Z,0.20
2023-03-29T11:18:53.466Z,0.20
2023-03-29T11:24:46.732Z,0.20
2023-03-29T11:30:07.584Z,0.20
2023-03-29T11:35:32.186Z,0.20
2023-03-29T11:40:42.969Z,0.17
2023-03-29T11:46:02.335Z,0.20
2023-03-29T11:51:25.834Z,0.30
2023-03-29T11:56:44.701Z,0.40
2023-03-29T12:01:52.766Z,0.30
2023-03-29T12:07:17.149Z,0.30
2023-03-29T12:12:21.601Z,0.30
2023-03-29T12:17:28.050Z,0.20
2023-03-29T12:22:29.450Z,0.30
2023-03-29T12:28:04.894Z,0.32
2023-03-29T12:38:29.398Z,0.47
2023-03-29T12:43:33.081Z,1.00
2023-03-29T12:48:34.679Z,0.50
2023-03-29T12:53:40.835Z,0.80
2023-03-29T12:59:07.488Z,0.90
2023-03-29T13:04:17.416Z,0.70
2023-03-29T13:09:30.867Z,0.43
2023-03-29T13:14:34.318Z,0.77
2023-03-29T13:19:53.814Z,0.70
2023-03-29T13:25:20.351Z,0.73
2023-03-29T13:30:22.254Z,0.60
2023-03-29T13:35:46.788Z,0.60
2023-03-29T13:40:51.775Z,0.80
2023-03-29T13:46:04.395Z,0.50
2023-03-29T13:51:18.196Z,0.60
2023-03-29T13:56:34.638Z,0.70
2023-03-29T14:01:43.400Z,0.75
2023-03-29T14:06:48.180Z,0.80
2023-03-29T14:11:49.564Z,0.65
2023-03-29T14:16:51.056Z,0.70
2023-03-29T14:21:53.049Z,0.60
2023-03-29T14:26:54.525Z,0.70
2023-03-29T14:31:56.136Z,0.70
2023-03-29T14:36:58.281Z,0.43
2023-03-29T14:41:59.728Z,0.60
2023-03-29T14:47:01.440Z,0.52
2023-03-29T14:52:03.239Z,0.45
2023-03-29T14:57:08.128Z,0.50
2023-03-29T15:02:29.653Z,0.47
2023-03-29T15:07:35.205Z,0.60
2023-03-29T15:12:36.600Z,0.55
2023-03-29T15:17:51.175Z,0.52
2023-03-29T15:23:08.349Z,0.40
2023-03-29T15:28:28.184Z,0.40
2023-03-29T15:33:35.061Z,0.43
2023-03-29T15:38:43.809Z,0.60
2023-03-29T15:43:46.490Z,0.40
2023-03-29T15:48:47.885Z,0.30
2023-03-29T15:53:49.328Z,0.40
2023-03-29T15:58:50.790Z,0.40
2023-03-29T16:03:52.450Z,0.40
2023-03-29T16:08:56.095Z,0.40
2023-03-29T16:13:58.590Z,0.30
2023-03-29T16:19:00.130Z,0.40
2023-03-29T16:24:01.651Z,0.50
2023-03-29T16:29:03.036Z,0.38
2023-03-29T16:34:05.020Z,0.35
2023-03-29T16:39:06.541Z,0.20
2023-03-29T16:44:07.932Z,0.20
2023-03-29T16:49:14.018Z,0.30
2023-03-29T16:54:16.974Z,0.30
2023-03-29T16:59:18.365Z,0.30
2023-03-29T17:04:19.769Z,0.30
2023-03-29T17:09:21.412Z,0.40
2023-03-29T17:14:22.789Z,0.50
2023-03-29T17:19:24.214Z,0.55
2023-03-29T17:24:25.622Z,0.50
2023-03-29T17:29:26.992Z,0.40
2023-03-29T17:34:28.989Z,0.30
2023-03-29T17:39:30.620Z,0.40
2023-03-29T17:44:33.098Z,0.40
2023-03-29T17:49:34.528Z,0.47
2023-03-29T17:54:36.081Z,0.47
2023-03-29T17:59:37.931Z,0.40
2023-03-29T18:04:39.334Z,0.65
2023-03-29T18:09:40.778Z,0.50
2023-03-29T18:14:42.147Z,0.60
2023-03-29T18:19:43.534Z,0.70
2023-03-29T18:24:46.341Z,0.63
2023-03-29T18:29:47.711Z,0.68
2023-03-29T18:34:49.078Z,0.50
2023-03-29T18:39:50.537Z,0.77
2023-03-29T18:44:52.128Z,0.40
2023-03-29T18:49:53.998Z,0.60
2023-03-29T18:54:55.393Z,0.60
2023-03-29T18:59:56.759Z,0.60
2023-03-29T19:04:58.165Z,0.50
2023-03-29T19:09:59.544Z,0.50
2023-03-29T19:15:01.018Z,0.63
2023-03-29T19:20:02.442Z,0.50
2023-03-29T19:25:04.663Z,0.60
2023-03-29T19:30:06.606Z,0.50
2023-03-29T19:35:09.443Z,0.50
2023-03-29T19:40:11.141Z,0.45
2023-03-29T19:45:12.519Z,0.60
2023-03-29T19:50:14.150Z,0.50
2023-03-29T19:55:15.594Z,0.60
2023-03-29T20:00:18.532Z,0.65
2023-03-29T20:05:20.197Z,0.47
2023-03-29T20:10:21.636Z,0.52
2023-03-29T20:15:25.374Z,0.50
2023-03-29T20:20:26.893Z,0.60
2023-03-29T20:25:28.642Z,0.50
2023-03-29T20:30:30.072Z,0.63
2023-03-29T20:35:31.552Z,0.50
2023-03-29T20:40:34.272Z,0.40
2023-03-29T20:45:49.849Z,0.60
2023-03-29T20:50:54.086Z,0.52
2023-03-29T20:55:55.467Z,0.50
2023-03-29T21:00:58.621Z,0.50
2023-03-29T21:06:02.092Z,0.40
2023-03-29T21:11:03.631Z,0.30
2023-03-29T21:16:05.601Z,0.45
2023-03-29T21:21:10.735Z,0.63
2023-03-29T21:26:12.402Z,0.57
2023-03-29T21:31:13.834Z,0.57
2023-03-29T21:36:15.220Z,0.43
2023-03-29T21:41:16.703Z,0.50
2023-03-29T21:46:18.108Z,0.63
2023-03-29T21:51:19.544Z,0.45
2023-03-29T21:56:22.233Z,0.40
2023-03-29T22:01:23.687Z,0.40
2023-03-29T22:06:25.429Z,0.40
2023-03-29T22:11:28.463Z,0.47
2023-03-29T22:16:31.206Z,0.40
2023-03-29T22:21:32.624Z,0.40
2023-03-29T22:26:34.023Z,0.52
2023-03-29T22:31:37.743Z,0.60
2023-03-29T22:36:39.148Z,0.40
2023-03-29T22:41:41.018Z,0.50
2023-03-29T22:46:42.406Z,0.50
2023-03-29T22:51:43.962Z,0.40
2023-03-29T22:56:45.447Z,0.40
2023-03-29T23:01:48.088Z,0.50
2023-03-29T23:06:49.524Z,0.40
2023-03-29T23:11:50.893Z,0.50
2023-03-29T23:16:52.322Z,0.30
2023-03-29T23:21:54.987Z,0.40
2023-03-29T23:26:57.424Z,0.32
2023-03-29T23:31:59.369Z,0.40
2023-03-29T23:37:00.765Z,0.40
2023-03-29T23:42:03.316Z,0.40
2023-03-29T23:47:06.000Z,0.45
2023-03-29T23:52:07.587Z,0.30
2023-03-29T23:57:10.633Z,0.43
